Terminal Aerodrome Forecast
Issued by NWS

Home | Current Version | Previous Version | Text Only | Print | Product List | Glossary Off
Versions: 1 2 3 4 5 6 7 8 9 10 11 12 13 14 15 16 17 18

000
FTUS43 KMPX 211100
TAFRNH
TAF
KRNH 211130Z 2112/2212 12007KT 6SM -TSRA BR SCT015 BKN035CB
     FM211330 12009KT P6SM FEW015 SCT025 OVC050
     FM211600 16008KT P6SM BKN040
     FM220200 VRB03KT P6SM SCT040
     FM220500 VRB03KT 3SM BR SCT003
     FM220800 VRB03KT 1/4SM FG VV001=

USA.gov is the U.S. government's official web portal to all federal, state and local government web resources and services.